Harbor Admiral — WDB3860 — position and weather

sailwx.info

Track history (hours):
 
Tides and Currents Weather Stations Pressure Air Temp Water Temp Dewpoint Dewpoint Depression Visibility Wind Speed Wind Dir Waves Ship Positions

Harbor Admiral

Owner: PACIFIC TUGBOAT SERVICE INC, SAN DIEGO, CA. More information available from US FCC via Universal Licensing System and Coast Guard Vessel Documentation Center.

Last reported at 2018-Apr-21 12:45 UTC. Time now 2018-Apr-23 21:28 UTC.
Position N 33°46' W 118°13'.

Type: Towing. MMSI: 366892110.

Date/timePositionNaut miles runAvg speedWind from/ knotsBaromVisibWave heightAir tempDewpointWater temp
2018-Apr-21 12:45N 33°46' W 118°13'1 4.9
2018-Apr-21 12:30N 33°45' W 118°13'3 5.7
2018-Apr-21 12:00N 33°43' W 118°15'1 2.2
2018-Apr-21 11:30N 33°43' W 118°16'0 0.5
2018-Apr-21 11:00N 33°43' W 118°16'0 0.6
2018-Apr-21 10:30N 33°43' W 118°16'1 2.8
2018-Apr-21 10:00N 33°43' W 118°15'3 5.5
2018-Apr-21 09:28N 33°45' W 118°13'1 0.1
2018-Apr-20 16:44N 33°46' W 118°13'0 0.0
2018-Apr-20 16:30N 33°46' W 118°13'0 0.0
2018-Apr-19 22:49N 33°46' W 118°13'1 4.7
2018-Apr-19 22:30N 33°46' W 118°15'1 2.6
2018-Apr-19 21:59N 33°45' W 118°16'1 1.4
2018-Apr-19 21:30N 33°46' W 118°15'1 2.9
2018-Apr-19 21:00N 33°46' W 118°14'1 0.1
2018-Apr-19 14:56N 33°46' W 118°13'0 0.0
2018-Apr-19 00:39N 33°46' W 118°13'0 3.4
2018-Apr-19 00:30N 33°46' W 118°13'3 6.0
2018-Apr-19 00:00N 33°43' W 118°14'1 2.2
2018-Apr-18 23:29N 33°44' W 118°15'0 0.0
2018-Apr-18 23:00N 33°44' W 118°15'1 2.2
2018-Apr-18 22:30N 33°43' W 118°15'2 3.8
2018-Apr-18 22:00N 33°44' W 118°13'2 4.2
2018-Apr-18 21:31N 33°46' W 118°13'0 1.0
2018-Apr-18 21:00N 33°46' W 118°13'0 0.0
2018-Apr-18 15:08N 33°46' W 118°13'0 0.0
2018-Apr-17 22:46N 33°46' W 118°13'0 0.0
2018-Apr-17 19:33N 33°46' W 118°13'0 0.0
2018-Apr-17 19:30N 33°46' W 118°13'0 0.0
2018-Apr-16 20:56N 33°46' W 118°13'0 0.4
2018-Apr-16 20:30N 33°46' W 118°13'2 3.9
2018-Apr-16 20:00N 33°44' W 118°13'2 3.6
2018-Apr-16 19:30N 33°44' W 118°10'1 2.1
2018-Apr-16 19:00N 33°44' W 118°12'2 3.8
2018-Apr-16 18:30N 33°44' W 118°14'1 2.8
2018-Apr-16 18:00N 33°46' W 118°13'  
2018-Apr-13 21:44N 33°46' W 118°13'0 0.0
2018-Apr-13 21:30N 33°46' W 118°13'0 0.1
2018-Apr-13 21:00N 33°46' W 118°13'0 0.0
2018-Apr-13 20:30N 33°46' W 118°13'0 0.0
2018-Apr-13 20:00N 33°46' W 118°13'0 0.0
2018-Apr-13 08:30N 33°46' W 118°13'2 4.3
2018-Apr-13 08:00N 33°44' W 118°14'3 3.9
2018-Apr-13 07:21N 33°43' W 118°16'0 0.0
2018-Apr-13 06:59N 33°43' W 118°16'0 0.7
2018-Apr-13 06:29N 33°43' W 118°16'0 0.6
2018-Apr-13 05:57N 33°43' W 118°16'1 3.2
2018-Apr-13 05:30N 33°43' W 118°15'3 5.9
2018-Apr-13 04:59N 33°46' W 118°13'1 0.0
2018-Apr-11 19:07N 33°46' W 118°13'0 3.1
2018-Apr-11 19:00N 33°46' W 118°13'3 5.4
2018-Apr-11 18:30N 33°44' W 118°11'1 2.5
2018-Apr-11 18:00N 33°45' W 118°10'0 0.1
2018-Apr-11 17:26N 33°45' W 118°10'2 4.2
2018-Apr-11 17:00N 33°44' W 118°12'2 2.7
2018-Apr-11 16:14N 33°46' W 118°13'0 0.0
2018-Apr-11 15:59N 33°46' W 118°13'2 4.0
2018-Apr-11 15:30N 33°46' W 118°15'1 1.8
2018-Apr-11 15:00N 33°45' W 118°16'2 3.2
2018-Apr-11 14:30N 33°46' W 118°14'  
Track history (hours):
 
Tides and Currents Weather Stations Pressure Air Temp Water Temp Dewpoint Dewpoint Depression Visibility Wind Speed Wind Dir Waves Ship Positions

Harbor Admiral

Owner: PACIFIC TUGBOAT SERVICE INC, SAN DIEGO, CA. More information available from US FCC via Universal Licensing System and Coast Guard Vessel Documentation Center.

Last reported at 2018-Apr-21 12:45 UTC. Time now 2018-Apr-23 21:28 UTC.
Position N 33°46' W 118°13'.

Type: Towing. MMSI: 366892110.

Date/timePositionNaut miles runAvg speedWind from/ knotsBaromVisibWave heightAir tempDewpointWater temp
2018-Apr-21 12:45N 33°46' W 118°13'1 4.9
2018-Apr-21 12:30N 33°45' W 118°13'3 5.7
2018-Apr-21 12:00N 33°43' W 118°15'1 2.2
2018-Apr-21 11:30N 33°43' W 118°16'0 0.5
2018-Apr-21 11:00N 33°43' W 118°16'0 0.6
2018-Apr-21 10:30N 33°43' W 118°16'1 2.8
2018-Apr-21 10:00N 33°43' W 118°15'3 5.5
2018-Apr-21 09:28N 33°45' W 118°13'1 0.1
2018-Apr-20 16:44N 33°46' W 118°13'0 0.0
2018-Apr-20 16:30N 33°46' W 118°13'0 0.0
2018-Apr-19 22:49N 33°46' W 118°13'1 4.7
2018-Apr-19 22:30N 33°46' W 118°15'1 2.6
2018-Apr-19 21:59N 33°45' W 118°16'1 1.4
2018-Apr-19 21:30N 33°46' W 118°15'1 2.9
2018-Apr-19 21:00N 33°46' W 118°14'1 0.1
2018-Apr-19 14:56N 33°46' W 118°13'0 0.0
2018-Apr-19 00:39N 33°46' W 118°13'0 3.4
2018-Apr-19 00:30N 33°46' W 118°13'3 6.0
2018-Apr-19 00:00N 33°43' W 118°14'1 2.2
2018-Apr-18 23:29N 33°44' W 118°15'0 0.0
2018-Apr-18 23:00N 33°44' W 118°15'1 2.2
2018-Apr-18 22:30N 33°43' W 118°15'2 3.8
2018-Apr-18 22:00N 33°44' W 118°13'2 4.2
2018-Apr-18 21:31N 33°46' W 118°13'0 1.0
2018-Apr-18 21:00N 33°46' W 118°13'0 0.0
2018-Apr-18 15:08N 33°46' W 118°13'0 0.0
2018-Apr-17 22:46N 33°46' W 118°13'0 0.0
2018-Apr-17 19:33N 33°46' W 118°13'0 0.0
2018-Apr-17 19:30N 33°46' W 118°13'0 0.0
2018-Apr-16 20:56N 33°46' W 118°13'0 0.4
2018-Apr-16 20:30N 33°46' W 118°13'2 3.9
2018-Apr-16 20:00N 33°44' W 118°13'2 3.6
2018-Apr-16 19:30N 33°44' W 118°10'1 2.1
2018-Apr-16 19:00N 33°44' W 118°12'2 3.8
2018-Apr-16 18:30N 33°44' W 118°14'1 2.8
2018-Apr-16 18:00N 33°46' W 118°13'  
2018-Apr-13 21:44N 33°46' W 118°13'0 0.0
2018-Apr-13 21:30N 33°46' W 118°13'0 0.1
2018-Apr-13 21:00N 33°46' W 118°13'0 0.0
2018-Apr-13 20:30N 33°46' W 118°13'0 0.0
2018-Apr-13 20:00N 33°46' W 118°13'0 0.0
2018-Apr-13 08:30N 33°46' W 118°13'2 4.3
2018-Apr-13 08:00N 33°44' W 118°14'3 3.9
2018-Apr-13 07:21N 33°43' W 118°16'0 0.0
2018-Apr-13 06:59N 33°43' W 118°16'0 0.7
2018-Apr-13 06:29N 33°43' W 118°16'0 0.6
2018-Apr-13 05:57N 33°43' W 118°16'1 3.2
2018-Apr-13 05:30N 33°43' W 118°15'3 5.9
2018-Apr-13 04:59N 33°46' W 118°13'1 0.0
2018-Apr-11 19:07N 33°46' W 118°13'0 3.1
2018-Apr-11 19:00N 33°46' W 118°13'3 5.4
2018-Apr-11 18:30N 33°44' W 118°11'1 2.5
2018-Apr-11 18:00N 33°45' W 118°10'0 0.1
2018-Apr-11 17:26N 33°45' W 118°10'2 4.2
2018-Apr-11 17:00N 33°44' W 118°12'2 2.7
2018-Apr-11 16:14N 33°46' W 118°13'0 0.0
2018-Apr-11 15:59N 33°46' W 118°13'2 4.0
2018-Apr-11 15:30N 33°46' W 118°15'1 1.8
2018-Apr-11 15:00N 33°45' W 118°16'2 3.2
2018-Apr-11 14:30N 33°46' W 118°14'  

Dump ship's entire track history